Time,TemperatureF,DewpointF,PressureIn,WindDirection,WindDirectionDegrees,WindSpeedMPH,WindSpeedGustMPH,Humidity,HourlyPrecipIn,Conditions,Clouds,dailyrainin,SoftwareType,DateUTC
2013-07-27 00:02:00,61.0,60.0,29.75,WSW,240,0.0,-999.0,95,-99.99,,,-99.99,,2013-07-27 05:02:00,
2013-07-27 00:12:00,61.0,60.0,29.75,WSW,240,0.0,-999.0,95,-99.99,,,-99.99,,2013-07-27 05:12:00,
2013-07-27 00:22:00,60.0,59.0,29.75,WSW,240,0.0,-999.0,95,-99.99,,,-99.99,,2013-07-27 05:22:00,
2013-07-27 00:32:00,60.0,59.0,29.75,WSW,240,0.0,-999.0,95,-99.99,,,-99.99,,2013-07-27 05:32:00,
2013-07-27 00:43:00,60.0,59.0,29.75,WSW,240,0.0,-999.0,95,-99.99,,,-99.99,,2013-07-27 05:43:00,
2013-07-27 00:52:00,59.0,58.0,29.75,WSW,240,0.0,-999.0,95,-99.99,,,-99.99,,2013-07-27 05:52:00,
2013-07-27 01:02:00,59.0,58.0,29.74,WSW,240,0.0,-999.0,95,-99.99,,,-99.99,,2013-07-27 06:02:00,
2013-07-27 01:12:00,59.0,58.0,29.74,WSW,240,0.0,-999.0,95,-99.99,,,-99.99,,2013-07-27 06:12:00,
2013-07-27 01:22:00,59.0,58.0,29.74,WSW,240,0.0,-999.0,95,-99.99,,,-99.99,,2013-07-27 06:22:00,
2013-07-27 01:33:00,58.0,57.0,29.74,WSW,240,0.0,-999.0,95,-99.99,,,-99.99,,2013-07-27 06:33:00,
2013-07-27 01:43:00,58.0,57.0,29.74,WSW,240,0.0,-999.0,96,-99.99,,,-99.99,,2013-07-27 06:43:00,
2013-07-27 01:52:00,58.0,57.0,29.74,WSW,240,0.0,-999.0,96,-99.99,,,-99.99,,2013-07-27 06:52:00,
2013-07-27 02:02:00,58.0,57.0,29.74,WSW,240,0.0,-999.0,96,-99.99,,,-99.99,,2013-07-27 07:02:00,
2013-07-27 02:12:00,58.0,57.0,29.73,WSW,240,0.0,-999.0,96,-99.99,,,-99.99,,2013-07-27 07:12:00,
2013-07-27 02:22:00,58.0,57.0,29.73,WSW,240,0.0,-999.0,96,-99.99,,,-99.99,,2013-07-27 07:22:00,
2013-07-27 02:33:00,57.0,56.0,29.74,WSW,240,0.0,-999.0,96,-99.99,,,-99.99,,2013-07-27 07:33:00,
2013-07-27 02:43:00,57.0,56.0,29.74,WSW,240,0.0,-999.0,96,-99.99,,,-99.99,,2013-07-27 07:43:00,
2013-07-27 02:52:00,57.0,56.0,29.74,WSW,240,0.0,-999.0,96,-99.99,,,-99.99,,2013-07-27 07:52:00,
2013-07-27 03:02:00,57.0,56.0,29.74,WSW,240,0.0,-999.0,96,-99.99,,,-99.99,,2013-07-27 08:02:00,
2013-07-27 03:12:00,57.0,56.0,29.74,WSW,240,0.0,-999.0,96,-99.99,,,-99.99,,2013-07-27 08:12:00,
2013-07-27 03:22:00,57.0,56.0,29.74,WSW,240,0.0,-999.0,96,-99.99,,,-99.99,,2013-07-27 08:22:00,
2013-07-27 03:32:00,57.0,56.0,29.74,WSW,240,0.0,-999.0,96,-99.99,,,-99.99,,2013-07-27 08:32:00,
2013-07-27 03:43:00,57.0,56.0,29.74,WSW,240,0.0,-999.0,96,-99.99,,,-99.99,,2013-07-27 08:43:00,
2013-07-27 03:53:00,57.0,56.0,29.74,WSW,240,0.0,-999.0,96,-99.99,,,-99.99,,2013-07-27 08:53:00,
2013-07-27 04:02:00,57.0,56.0,29.74,WSW,240,0.0,-999.0,96,-99.99,,,-99.99,,2013-07-27 09:02:00,
2013-07-27 04:12:00,57.0,56.0,29.73,WSW,240,0.0,-999.0,96,-99.99,,,-99.99,,2013-07-27 09:12:00,
2013-07-27 04:22:00,57.0,56.0,29.74,SW,221,0.0,-999.0,96,-99.99,,,-99.99,,2013-07-27 09:22:00,
2013-07-27 04:33:00,56.0,55.0,29.74,SW,221,0.0,-999.0,96,-99.99,,,-99.99,,2013-07-27 09:33:00,
2013-07-27 04:44:00,56.0,55.0,29.74,SW,221,0.0,-999.0,96,-99.99,,,-99.99,,2013-07-27 09:44:00,
2013-07-27 04:52:00,56.0,55.0,29.74,SW,221,0.0,-999.0,96,-99.99,,,-99.99,,2013-07-27 09:52:00,
2013-07-27 05:02:00,56.0,55.0,29.74,SW,221,0.0,-999.0,96,-99.99,,,-99.99,,2013-07-27 10:02:00,
2013-07-27 05:22:00,56.0,55.0,29.74,SW,221,0.0,-999.0,96,-99.99,,,-99.99,,2013-07-27 10:22:00,
2013-07-27 05:32:00,56.0,55.0,29.74,SW,221,0.0,-999.0,96,-99.99,,,-99.99,,2013-07-27 10:32:00,
2013-07-27 05:43:00,56.0,55.0,29.75,SW,221,0.0,-999.0,97,-99.99,,,-99.99,,2013-07-27 10:43:00,
2013-07-27 05:52:00,56.0,55.0,29.75,ESE,105,0.0,-999.0,97,-99.99,,,-99.99,,2013-07-27 10:52:00,
2013-07-27 06:02:00,56.0,55.0,29.75,East,98,0.0,-999.0,97,-99.99,,,-99.99,,2013-07-27 11:02:00,
2013-07-27 06:12:00,56.0,55.0,29.76,East,98,0.0,-999.0,97,-99.99,,,-99.99,,2013-07-27 11:12:00,
2013-07-27 06:22:00,56.0,55.0,29.76,East,98,0.0,-999.0,97,-99.99,,,-99.99,,2013-07-27 11:22:00,
2013-07-27 06:32:00,56.0,55.0,29.76,East,98,0.0,-999.0,97,-99.99,,,-99.99,,2013-07-27 11:32:00,
2013-07-27 06:44:00,56.0,55.0,29.76,East,98,0.0,-999.0,97,-99.99,,,-99.99,,2013-07-27 11:44:00,
2013-07-27 06:52:00,56.0,55.0,29.76,ESE,123,0.0,-999.0,97,-99.99,,,-99.99,,2013-07-27 11:52:00,
2013-07-27 07:02:00,56.0,55.0,29.76,SSE,155,0.0,-999.0,97,-99.99,,,-99.99,,2013-07-27 12:02:00,
2013-07-27 07:12:00,56.0,55.0,29.76,ENE,72,0.0,-999.0,97,-99.99,,,-99.99,,2013-07-27 12:12:00,
2013-07-27 07:22:00,57.0,56.0,29.76,East,90,0.0,-999.0,97,-99.99,,,-99.99,,2013-07-27 12:22:00,
2013-07-27 07:33:00,58.0,57.0,29.77,ENE,78,0.0,-999.0,97,-99.99,,,-99.99,,2013-07-27 12:33:00,
2013-07-27 07:43:00,58.0,57.0,29.77,ENE,78,1.0,-999.0,97,-99.99,,,-99.99,,2013-07-27 12:43:00,
2013-07-27 07:52:00,58.0,57.0,29.77,ENE,72,1.0,-999.0,96,-99.99,,,-99.99,,2013-07-27 12:52:00,
2013-07-27 08:02:00,58.0,57.0,29.77,NE,50,0.0,-999.0,96,-99.99,,,-99.99,,2013-07-27 13:02:00,
2013-07-27 08:12:00,58.0,57.0,29.77,ENE,72,1.0,-999.0,95,-99.99,,,-99.99,,2013-07-27 13:12:00,
2013-07-27 08:32:00,59.0,57.0,29.77,SW,219,0.0,-999.0,94,-99.99,,,-99.99,,2013-07-27 13:32:00,
2013-07-27 08:44:00,59.0,57.0,29.77,ENE,75,1.0,-999.0,93,-99.99,,,-99.99,,2013-07-27 13:44:00,
2013-07-27 08:53:00,60.0,57.0,29.77,ENE,60,1.0,-999.0,91,-99.99,,,-99.99,,2013-07-27 13:53:00,
2013-07-27 09:02:00,60.0,57.0,29.77,ENE,70,0.0,-999.0,90,-99.99,,,-99.99,,2013-07-27 14:02:00,
2013-07-27 09:12:00,60.0,57.0,29.78,ENE,74,1.0,-999.0,89,-99.99,,,-99.99,,2013-07-27 14:12:00,
2013-07-27 09:32:00,61.0,57.0,29.78,ENE,75,1.0,-999.0,88,-99.99,,,-99.99,,2013-07-27 14:32:00,
2013-07-27 09:44:00,62.0,57.0,29.78,ENE,76,1.0,-999.0,85,-99.99,,,-99.99,,2013-07-27 14:44:00,
2013-07-27 09:54:00,62.0,58.0,29.78,SSW,202,1.0,-999.0,86,-99.99,,,-99.99,,2013-07-27 14:54:00,
2013-07-27 10:02:00,62.0,58.0,29.77,ESE,105,1.0,-999.0,86,-99.99,,,-99.99,,2013-07-27 15:02:00,
2013-07-27 10:12:00,63.0,57.0,29.77,East,92,1.0,-999.0,81,-99.99,,,-99.99,,2013-07-27 15:12:00,
2013-07-27 10:22:00,63.0,57.0,29.77,SW,234,1.0,-999.0,80,-99.99,,,-99.99,,2013-07-27 15:22:00,
2013-07-27 10:33:00,63.0,56.0,29.77,East,98,1.0,-999.0,79,-99.99,,,-99.99,,2013-07-27 15:33:00,
2013-07-27 10:44:00,63.0,56.0,29.77,NE,38,1.0,-999.0,78,-99.99,,,-99.99,,2013-07-27 15:44:00,
2013-07-27 10:53:00,64.0,56.0,29.76,East,94,2.0,-999.0,75,-99.99,,,-99.99,,2013-07-27 15:53:00,
2013-07-27 11:02:00,64.0,55.0,29.76,ENE,64,1.0,-999.0,73,-99.99,,,-99.99,,2013-07-27 16:02:00,
2013-07-27 11:12:00,64.0,57.0,29.76,ENE,75,1.0,-999.0,78,-99.99,,,-99.99,,2013-07-27 16:12:00,
2013-07-27 11:22:00,64.0,56.0,29.77,NE,47,1.0,-999.0,75,-99.99,,,-99.99,,2013-07-27 16:22:00,
2013-07-27 11:33:00,65.0,56.0,29.76,SSW,206,1.0,-999.0,74,-99.99,,,-99.99,,2013-07-27 16:33:00,
2013-07-27 11:43:00,66.0,57.0,29.77,SE,132,1.0,-999.0,73,-99.99,,,-99.99,,2013-07-27 16:43:00,
2013-07-27 11:53:00,65.0,56.0,29.77,ENE,66,1.0,-999.0,73,-99.99,,,-99.99,,2013-07-27 16:53:00,
2013-07-27 12:02:00,66.0,56.0,29.77,ENE,64,2.0,-999.0,69,-99.99,,,-99.99,,2013-07-27 17:02:00,
2013-07-27 12:12:00,66.0,55.0,29.76,NE,34,1.0,-999.0,67,-99.99,,,-99.99,,2013-07-27 17:12:00,
2013-07-27 12:22:00,65.0,53.0,29.76,WNW,284,2.0,-999.0,64,-99.99,,,-99.99,,2013-07-27 17:22:00,
2013-07-27 12:32:00,66.0,53.0,29.76,East,82,1.0,-999.0,64,-99.99,,,-99.99,,2013-07-27 17:32:00,
2013-07-27 12:43:00,66.0,53.0,29.76,ENE,67,1.0,-999.0,63,-99.99,,,-99.99,,2013-07-27 17:43:00,
2013-07-27 12:53:00,67.0,54.0,29.76,NE,55,1.0,-999.0,62,-99.99,,,-99.99,,2013-07-27 17:53:00,
2013-07-27 13:02:00,67.0,52.0,29.76,ENE,71,1.0,-999.0,59,-99.99,,,-99.99,,2013-07-27 18:02:00,
2013-07-27 13:22:00,67.0,53.0,29.76,WNW,296,1.0,-999.0,61,-99.99,,,-99.99,,2013-07-27 18:22:00,
2013-07-27 13:33:00,67.0,54.0,29.76,East,91,1.0,-999.0,63,-99.99,,,-99.99,,2013-07-27 18:33:00,
2013-07-27 13:42:00,66.0,51.0,29.76,East,83,1.0,-999.0,59,-99.99,,,-99.99,,2013-07-27 18:42:00,
2013-07-27 13:53:00,67.0,54.0,29.76,NE,44,2.0,-999.0,63,-99.99,,,-99.99,,2013-07-27 18:53:00,
2013-07-27 14:02:00,67.0,53.0,29.76,WSW,248,2.0,-999.0,61,-99.99,,,-99.99,,2013-07-27 19:02:00,
2013-07-27 14:12:00,67.0,53.0,29.75,ENE,71,1.0,-999.0,60,-99.99,,,-99.99,,2013-07-27 19:12:00,
2013-07-27 14:22:00,67.0,52.0,29.76,NE,45,1.0,-999.0,59,-99.99,,,-99.99,,2013-07-27 19:22:00,
2013-07-27 14:32:00,67.0,53.0,29.76,East,86,1.0,-999.0,61,-99.99,,,-99.99,,2013-07-27 19:32:00,
2013-07-27 14:43:00,67.0,53.0,29.76,ENE,59,1.0,-999.0,61,-99.99,,,-99.99,,2013-07-27 19:43:00,
2013-07-27 14:53:00,67.0,52.0,29.76,North,5,1.0,-999.0,59,-99.99,,,-99.99,,2013-07-27 19:53:00,
2013-07-27 15:02:00,66.0,52.0,29.76,WSW,250,2.0,-999.0,60,-99.99,,,-99.99,,2013-07-27 20:02:00,
2013-07-27 15:12:00,66.0,53.0,29.76,East,79,1.0,-999.0,63,-99.99,,,-99.99,,2013-07-27 20:12:00,
2013-07-27 15:22:00,66.0,53.0,29.76,ENE,69,1.0,-999.0,63,-99.99,,,-99.99,,2013-07-27 20:22:00,
2013-07-27 15:32:00,65.0,53.0,29.76,SE,130,1.0,-999.0,64,-99.99,,,-99.99,,2013-07-27 20:32:00,
2013-07-27 15:43:00,66.0,54.0,29.76,NNW,333,1.0,-999.0,65,-99.99,,,-99.99,,2013-07-27 20:43:00,
2013-07-27 15:52:00,67.0,54.0,29.76,SW,217,1.0,-999.0,62,-99.99,,,-99.99,,2013-07-27 20:52:00,
2013-07-27 16:03:00,65.0,50.0,29.77,NE,51,2.0,-999.0,59,-99.99,,,-99.99,,2013-07-27 21:03:00,
2013-07-27 16:12:00,65.0,50.0,29.77,East,80,1.0,-999.0,59,-99.99,,,-99.99,,2013-07-27 21:12:00,
2013-07-27 16:23:00,65.0,50.0,29.76,NE,54,1.0,-999.0,59,-99.99,,,-99.99,,2013-07-27 21:23:00,
2013-07-27 16:33:00,66.0,51.0,29.76,East,87,1.0,-999.0,59,-99.99,,,-99.99,,2013-07-27 21:33:00,
2013-07-27 16:43:00,65.0,50.0,29.76,NE,46,2.0,-999.0,59,-99.99,,,-99.99,,2013-07-27 21:43:00,
2013-07-27 16:52:00,65.0,51.0,29.77,East,98,1.0,-999.0,60,-99.99,,,-99.99,,2013-07-27 21:52:00,
2013-07-27 17:02:00,64.0,51.0,29.77,ENE,63,2.0,-999.0,63,-99.99,,,-99.99,,2013-07-27 22:02:00,
2013-07-27 17:12:00,65.0,52.0,29.76,NE,53,1.0,-999.0,62,-99.99,,,-99.99,,2013-07-27 22:12:00,
2013-07-27 17:22:00,65.0,51.0,29.76,ENE,74,1.0,-999.0,61,-99.99,,,-99.99,,2013-07-27 22:22:00,
2013-07-27 17:32:00,65.0,50.0,29.77,ENE,69,1.0,-999.0,58,-99.99,,,-99.99,,2013-07-27 22:32:00,
2013-07-27 17:43:00,65.0,50.0,29.76,NW,306,1.0,-999.0,58,-99.99,,,-99.99,,2013-07-27 22:43:00,
2013-07-27 17:53:00,65.0,50.0,29.77,ENE,72,1.0,-999.0,58,-99.99,,,-99.99,,2013-07-27 22:53:00,
2013-07-27 18:02:00,65.0,50.0,29.77,ENE,69,1.0,-999.0,58,-99.99,,,-99.99,,2013-07-27 23:02:00,
2013-07-27 18:12:00,64.0,48.0,29.77,ESE,118,1.0,-999.0,57,-99.99,,,-99.99,,2013-07-27 23:12:00,
2013-07-27 18:22:00,64.0,49.0,29.77,SW,233,1.0,-999.0,58,-99.99,,,-99.99,,2013-07-27 23:22:00,
2013-07-27 18:32:00,64.0,49.0,29.76,ENE,78,1.0,-999.0,59,-99.99,,,-99.99,,2013-07-27 23:32:00,
2013-07-27 18:44:00,64.0,49.0,29.77,ENE,71,1.0,-999.0,59,-99.99,,,-99.99,,2013-07-27 23:44:00,
2013-07-27 18:52:00,64.0,50.0,29.77,SSE,156,1.0,-999.0,60,-99.99,,,-99.99,,2013-07-27 23:52:00,
2013-07-27 19:02:00,64.0,50.0,29.77,ENE,78,0.0,-999.0,61,-99.99,,,-99.99,,2013-07-28 00:02:00,
2013-07-27 19:12:00,63.0,50.0,29.77,ENE,76,0.0,-999.0,62,-99.99,,,-99.99,,2013-07-28 00:12:00,
2013-07-27 19:22:00,63.0,49.0,29.77,ENE,67,1.0,-999.0,61,-99.99,,,-99.99,,2013-07-28 00:22:00,
2013-07-27 19:32:00,62.0,48.0,29.77,ENE,66,1.0,-999.0,61,-99.99,,,-99.99,,2013-07-28 00:32:00,
2013-07-27 19:53:00,62.0,51.0,29.77,ENE,75,0.0,-999.0,66,-99.99,,,-99.99,,2013-07-28 00:53:00,
2013-07-27 20:02:00,61.0,51.0,29.77,ENE,61,0.0,-999.0,69,-99.99,,,-99.99,,2013-07-28 01:02:00,
2013-07-27 20:12:00,61.0,52.0,29.77,East,82,0.0,-999.0,71,-99.99,,,-99.99,,2013-07-28 01:12:00,
2013-07-27 20:22:00,60.0,51.0,29.77,East,82,0.0,-999.0,72,-99.99,,,-99.99,,2013-07-28 01:22:00,
2013-07-27 20:32:00,60.0,52.0,29.77,East,82,0.0,-999.0,74,-99.99,,,-99.99,,2013-07-28 01:32:00,
2013-07-27 20:43:00,59.0,51.0,29.77,East,82,0.0,-999.0,75,-99.99,,,-99.99,,2013-07-28 01:43:00,
2013-07-27 21:03:00,58.0,52.0,29.78,East,82,0.0,-999.0,80,-99.99,,,-99.99,,2013-07-28 02:03:00,
2013-07-27 21:12:00,57.0,51.0,29.78,East,82,0.0,-999.0,81,-99.99,,,-99.99,,2013-07-28 02:12:00,
2013-07-27 21:22:00,56.0,51.0,29.78,East,82,0.0,-999.0,82,-99.99,,,-99.99,,2013-07-28 02:22:00,
2013-07-27 21:32:00,56.0,51.0,29.78,East,82,0.0,-999.0,84,-99.99,,,-99.99,,2013-07-28 02:32:00,
2013-07-27 21:53:00,55.0,51.0,29.79,East,82,0.0,-999.0,87,-99.99,,,-99.99,,2013-07-28 02:53:00,
2013-07-27 22:02:00,54.0,50.0,29.78,East,82,0.0,-999.0,87,-99.99,,,-99.99,,2013-07-28 03:02:00,
2013-07-27 22:12:00,54.0,51.0,29.79,East,82,0.0,-999.0,88,-99.99,,,-99.99,,2013-07-28 03:12:00,
2013-07-27 22:22:00,54.0,51.0,29.79,East,82,0.0,-999.0,89,-99.99,,,-99.99,,2013-07-28 03:22:00,
2013-07-27 22:32:00,54.0,51.0,29.79,East,82,0.0,-999.0,89,-99.99,,,-99.99,,2013-07-28 03:32:00,
2013-07-27 22:42:00,53.0,51.0,29.79,East,82,0.0,-999.0,92,-99.99,,,-99.99,,2013-07-28 03:42:00,
2013-07-27 22:53:00,53.0,50.0,29.79,East,82,0.0,-999.0,90,-99.99,,,-99.99,,2013-07-28 03:53:00,
2013-07-27 23:02:00,53.0,50.0,29.79,East,82,0.0,-999.0,90,-99.99,,,-99.99,,2013-07-28 04:02:00,
2013-07-27 23:12:00,53.0,50.0,29.79,East,82,0.0,-999.0,91,-99.99,,,-99.99,,2013-07-28 04:12:00,
2013-07-27 23:22:00,53.0,50.0,29.79,East,82,0.0,-999.0,91,-99.99,,,-99.99,,2013-07-28 04:22:00,
2013-07-27 23:32:00,53.0,51.0,29.78,East,82,0.0,-999.0,92,-99.99,,,-99.99,,2013-07-28 04:32:00,
2013-07-27 23:53:00,53.0,51.0,29.78,East,82,0.0,-999.0,92,-99.99,,,-99.99,,2013-07-28 04:53:00,